This is the latest recevied weather packets stored in our database for station/object SQ6PCH-10. If no packets are shown the sender has not sent any weather packets the latest 10 day(s).
| Time | Temp. | Humidity | Pressure | Rain* | Wind** | Luminosity | Snow |
|---|---|---|---|---|---|---|---|
| 1777886324 | 28.33° C | 21% | 999 hPa | - | - | - | - |
| 1777885724 | 28.33° C | 22% | 998.9 hPa | - | - | - | - |
| 1777885124 | 25.56° C | 25% | 999 hPa | - | - | - | - |
| 1777883924 | 25° C | 26% | 999 hPa | - | - | - | - |
| 1777883324 | 25.56° C | 24% | 999 hPa | - | - | - | - |
| 1777882723 | 22.78° C | 28% | 998.9 hPa | - | - | - | - |
| 1777882122 | 23.33° C | 29% | 999 hPa | - | - | - | - |
| 1777881522 | 23.33° C | 29% | 998.9 hPa | - | - | - | - |
| 1777880922 | 22.22° C | 30% | 998.9 hPa | - | - | - | - |
| 1777880322 | 22.78° C | 30% | 998.8 hPa | - | - | - | - |
| 1777879722 | 22.78° C | 30% | 998.9 hPa | - | - | - | - |
| 1777879122 | 21.67° C | 33% | 999 hPa | - | - | - | - |
| 1777878521 | 20° C | 35% | 999 hPa | - | - | - | - |
| 1777877921 | 19.44° C | 38% | 998.8 hPa | - | - | - | - |
| 1777877321 | 18.89° C | 38% | 998.9 hPa | - | - | - | - |
| 1777876721 | 18.89° C | 39% | 998.8 hPa | - | - | - | - |
| 1777876121 | 18.33° C | 39% | 998.8 hPa | - | - | - | - |
| 1777875521 | 17.78° C | 40% | 998.8 hPa | - | - | - | - |
| 1777874920 | 17.22° C | 42% | 998.7 hPa | - | - | - | - |
| 1777874320 | 15.56° C | 45% | 998.7 hPa | - | - | - | - |
| 1777873720 | 14.44° C | 46% | 998.7 hPa | - | - | - | - |
| 1777873120 | 13.33° C | 49% | 998.6 hPa | - | - | - | - |
| 1777872520 | 13.33° C | 50% | 998.6 hPa | - | - | - | - |
| 1777871920 | 12.78° C | 49% | 998.7 hPa | - | - | - | - |
| 1777871319 | 13.33° C | 49% | 998.6 hPa | - | - | - | - |
* Rain since midnight (hover to see other rain measurements)
** Current wind speed in m/s (hover to see current wind gust speed)